bonfirethemes.com alexa rank chart, bonfirethemes.com alexa rank daily changes

bonfirethemes.com alexa rank chart, bonfirethemes.com alexa rank daily changes

bonfirethemes.com
Actual rank:
249 969

RANK HISTORY

Date Rank Diff
2016/12/07 249 969 +8 680
2016/12/06 241 289 +10 154
2016/12/05 231 135 +13 381
2016/12/04 217 754 +16 736
2016/12/02 201 018 +1 503
2016/12/01 199 515 -3 405
2016/11/30 202 920 +3 725
2016/11/29 199 195 -728
2016/11/28 199 923 -7 910
2016/11/27 207 833 +1 781
2016/11/26 206 052 -2 937
2016/11/25 208 989 +15 458
2016/11/24 193 531 -2 700
2016/11/23 196 231 +347
2016/11/19 195 884 +278
2016/11/18 195 606 +15 137
2016/11/17 180 469 +2 192
2016/11/16 178 277 -3 482
2016/11/15 181 759 -389
2016/11/14 182 148 -5 317
2016/11/13 187 465 -14 406
2016/11/12 201 871 +1 859
2016/11/11 200 012 +1 223
2016/11/10 198 789 +7 286
2016/11/09 191 503 -3 255
2016/11/08 194 758 -5 345
2016/11/07 200 103 -668
2016/11/06 200 771 -8 076
2016/11/05 208 847 -9 189
2016/11/04 218 036 -7 498
2016/11/03 225 534 -7 907
2016/11/02 233 441 -482
2016/11/01 233 923 +3 924
2016/10/31 229 999 +4 389
2016/10/30 225 610 +10 545
2016/10/29 215 065 +10 085
2016/10/28 204 980 +1 298
2016/10/27 203 682 +4 327
2016/10/26 199 355 +17 164
2016/10/25 182 191 -9 482
2016/10/24 191 673 +12 858
2016/10/23 178 815 +684
2016/10/22 178 131 +9 500
2016/10/21 168 631 -1 750
2016/10/20 170 381 +8 224
2016/10/19 162 157 +4 512
2016/10/18 157 645 +1 594
2016/10/17 156 051 +11 014
2016/10/16 145 037 +5 378
2016/10/15 139 659 +28 179
2016/10/14 111 480 -1 080
2016/10/13 112 560 -3 917
2016/10/12 116 477 +469
2016/10/11 116 008 -4 982
2016/10/10 120 990 -3 902
2016/10/09 124 892 -4 552
2016/10/08 129 444

WIDGET FOR YOUR SITE

DOMAINS WITH THE NEAREST RANK

Domain Rank
dewalt.co.uk 249 964
sedc.com.sd 249 965
folhageral.com 249 966
contactmonkey.com 249 967
wozhuan.com 249 968
bonfirethemes.com 249 969
de.vu 249 970
lilypond.org 249 971
milfsection.com 249 972
hindutemplesguide.com 249 973
zemlemer-67.ru 249 974

DOMAINS WITH THE NEAREST RANK BY TLD .com

Domain Rank
rmayd.com 249 962
medotvet.com 249 963
folhageral.com 249 966
contactmonkey.com 249 967
wozhuan.com 249 968
bonfirethemes.com 249 969
milfsection.com 249 972
hindutemplesguide.com 249 973
crochetforchildren.com 249 975
bananatic.com 249 976
pddnet.com 249 978